Time;durP1;ratioP1;P1;durP2;ratioP2;P2;SDS_P1;SDS_P2;PMS_P1;PMS_P2;Temp;Humidity;BMP_temperature;BMP_pressure;BME280_temperature;BME280_humidity;BME280_pressure;Samples;Min_cycle;Max_cycle;Signal;HPM_P1;HPM_P2
2022/07/01 00:00:31;;;;;;;2.03;0.73;;;15.30;99.90;;;;;;5032236;28;20523;-67
2022/07/01 00:02:57;;;;;;;0.77;0.77;;;15.20;99.90;;;;;;5032719;28;20664;-67
2022/07/01 00:05:23;;;;;;;0.60;0.60;;;15.20;99.90;;;;;;5031921;28;20216;-67
2022/07/01 00:07:48;;;;;;;2.40;0.80;;;15.20;99.90;;;;;;5032524;28;20182;-67
2022/07/01 00:10:14;;;;;;;1.17;0.70;;;15.20;99.90;;;;;;5014421;28;20225;-67
2022/07/01 00:12:40;;;;;;;2.75;0.68;;;15.20;99.90;;;;;;5032180;28;20213;-67
2022/07/01 00:15:06;;;;;;;0.70;0.70;;;15.20;99.90;;;;;;5032041;28;20256;-68
2022/07/01 00:17:31;;;;;;;1.90;0.90;;;15.20;99.90;;;;;;5031976;28;20185;-67
2022/07/01 00:19:57;;;;;;;1.27;0.82;;;15.20;99.90;;;;;;5032244;28;20182;-67
2022/07/01 00:22:23;;;;;;;1.10;1.00;;;15.30;99.90;;;;;;5032209;28;20186;-67
2022/07/01 00:24:48;;;;;;;0.70;0.68;;;15.30;99.90;;;;;;5031373;28;20296;-67
2022/07/01 00:27:17;;;;;;;0.88;0.88;;;15.30;99.90;;;;;;5031998;28;20174;-67
2022/07/01 00:29:43;;;;;;;3.00;0.70;;;15.30;99.90;;;;;;5032109;28;20305;-67
2022/07/01 00:32:09;;;;;;;0.75;0.75;;;15.30;99.90;;;;;;5031454;28;20277;-67
2022/07/01 00:34:34;;;;;;;0.98;0.80;;;15.30;99.90;;;;;;5031285;28;20220;-67
2022/07/01 00:37:00;;;;;;;1.55;0.80;;;15.30;99.90;;;;;;5032056;28;20257;-67
2022/07/01 00:39:26;;;;;;;0.80;0.80;;;15.20;99.90;;;;;;5031661;28;20233;-67
2022/07/01 00:41:51;;;;;;;1.08;0.65;;;15.20;99.90;;;;;;5014227;28;20247;-67
2022/07/01 00:44:18;;;;;;;1.02;1.00;;;15.20;99.90;;;;;;5017814;28;20215;-68
2022/07/01 00:46:45;;;;;;;2.55;1.05;;;15.30;99.90;;;;;;5012260;28;20181;-68
2022/07/01 00:49:11;;;;;;;1.20;0.98;;;15.30;99.90;;;;;;5030498;28;20712;-67
2022/07/01 00:51:37;;;;;;;0.85;0.80;;;15.40;99.90;;;;;;5031348;28;20190;-67
2022/07/01 00:54:02;;;;;;;0.98;0.88;;;15.30;99.90;;;;;;5031338;28;20208;-67
2022/07/01 00:56:28;;;;;;;1.02;0.90;;;15.30;99.90;;;;;;5031442;28;20178;-67
2022/07/01 00:58:55;;;;;;;2.35;0.80;;;15.30;99.90;;;;;;5031563;28;20185;-67
2022/07/01 01:01:22;;;;;;;1.90;0.80;;;15.30;99.90;;;;;;5031507;28;20744;-67
2022/07/01 01:03:48;;;;;;;0.95;0.60;;;15.30;99.90;;;;;;5031597;28;20194;-67
2022/07/01 01:06:15;;;;;;;3.92;0.77;;;15.20;99.90;;;;;;5013802;28;20693;-67
2022/07/01 01:08:41;;;;;;;1.23;0.50;;;15.20;99.90;;;;;;5031661;28;20264;-67
2022/07/01 01:11:07;;;;;;;1.55;0.85;;;15.10;99.90;;;;;;5031418;28;20182;-67
2022/07/01 01:13:33;;;;;;;0.73;0.73;;;15.10;99.90;;;;;;5031248;28;20189;-67
2022/07/01 01:15:59;;;;;;;0.60;0.60;;;15.00;99.90;;;;;;5031785;28;20555;-67
2022/07/01 01:18:25;;;;;;;1.52;0.68;;;15.00;99.90;;;;;;5031273;28;20174;-67
2022/07/01 01:20:52;;;;;;;1.83;0.80;;;15.00;99.90;;;;;;5013673;28;20576;-67
2022/07/01 01:23:18;;;;;;;1.48;0.70;;;14.90;99.90;;;;;;5031487;28;20194;-67
2022/07/01 01:25:46;;;;;;;1.15;1.05;;;14.90;99.90;;;;;;5023489;28;20187;-67
2022/07/01 01:28:12;;;;;;;2.25;0.70;;;14.90;99.90;;;;;;5013343;28;20170;-68
2022/07/01 01:30:37;;;;;;;0.77;0.70;;;14.90;99.90;;;;;;5026211;28;20734;-67
2022/07/01 01:33:03;;;;;;;0.63;0.60;;;14.90;99.90;;;;;;5011927;28;20175;-67
2022/07/01 01:35:28;;;;;;;1.50;0.70;;;14.80;99.90;;;;;;5023205;28;20266;-67
2022/07/01 01:37:54;;;;;;;1.60;0.68;;;14.90;99.90;;;;;;5031238;28;20260;-67
2022/07/01 01:40:19;;;;;;;0.65;0.65;;;14.90;99.90;;;;;;5031462;28;20229;-67
2022/07/01 01:42:45;;;;;;;0.75;0.70;;;14.90;99.90;;;;;;5030999;28;20273;-67
2022/07/01 01:45:12;;;;;;;1.05;0.95;;;14.90;99.90;;;;;;5021495;28;20242;-67
2022/07/01 01:47:37;;;;;;;0.43;0.40;;;14.90;99.90;;;;;;5013751;28;20178;-67
2022/07/01 01:50:07;;;;;;;0.57;0.57;;;14.90;99.90;;;;;;5014029;28;20292;-66
2022/07/01 01:52:33;;;;;;;3.80;0.77;;;14.90;99.90;;;;;;5034841;28;20525;-67
2022/07/01 01:55:00;;;;;;;1.13;0.70;;;14.80;99.90;;;;;;5034953;28;20232;-69
2022/07/01 01:57:25;;;;;;;0.95;0.65;;;14.80;99.90;;;;;;5016985;28;20331;-70
2022/07/01 01:59:51;;;;;;;1.35;0.90;;;14.80;99.90;;;;;;5034379;28;20265;-69
2022/07/01 02:02:16;;;;;;;1.48;0.70;;;14.80;99.90;;;;;;5034510;28;20265;-69
2022/07/01 02:04:42;;;;;;;1.00;0.88;;;14.80;99.90;;;;;;5033686;28;20222;-68
2022/07/01 02:07:08;;;;;;;0.50;0.50;;;14.70;99.90;;;;;;5033599;28;20177;-69
2022/07/01 02:09:33;;;;;;;0.60;0.60;;;14.70;99.90;;;;;;5034460;28;20752;-70
2022/07/01 02:11:59;;;;;;;0.88;0.80;;;14.70;99.90;;;;;;5032716;28;20183;-69
2022/07/01 02:14:24;;;;;;;0.63;0.63;;;14.70;99.90;;;;;;5034099;28;20174;-69
2022/07/01 02:16:50;;;;;;;0.82;0.82;;;14.70;99.90;;;;;;5034434;28;20225;-69
2022/07/01 02:19:15;;;;;;;0.90;0.90;;;14.70;99.90;;;;;;5021850;28;20203;-68
2022/07/01 02:21:41;;;;;;;0.65;0.60;;;14.70;99.90;;;;;;5016548;28;20178;-69
2022/07/01 02:24:07;;;;;;;0.80;0.73;;;14.70;99.90;;;;;;5033890;28;20210;-70
2022/07/01 02:26:33;;;;;;;0.63;0.60;;;14.80;99.90;;;;;;5034151;28;20174;-69
2022/07/01 02:28:58;;;;;;;0.73;0.73;;;14.80;99.90;;;;;;5033566;28;20719;-69
2022/07/01 02:31:24;;;;;;;1.05;0.77;;;14.90;99.90;;;;;;5034134;28;20170;-69
2022/07/01 02:33:49;;;;;;;0.65;0.57;;;14.90;99.90;;;;;;5033694;28;20268;-70
2022/07/01 02:36:15;;;;;;;0.63;0.63;;;14.80;99.90;;;;;;5034094;28;20210;-69
2022/07/01 02:38:40;;;;;;;0.93;0.93;;;14.80;99.90;;;;;;5033373;28;20791;-70
2022/07/01 02:41:06;;;;;;;1.48;0.88;;;14.80;99.90;;;;;;5033976;28;20205;-70
2022/07/01 02:43:32;;;;;;;2.35;0.90;;;14.80;99.90;;;;;;5033439;28;20201;-70
2022/07/01 02:45:58;;;;;;;0.90;0.90;;;14.80;99.90;;;;;;5033180;28;20171;-70
2022/07/01 02:48:24;;;;;;;0.80;0.80;;;14.70;99.90;;;;;;5033977;28;20174;-69
2022/07/01 02:50:49;;;;;;;1.95;1.05;;;14.70;99.90;;;;;;5033517;28;20213;-69
2022/07/01 02:53:15;;;;;;;3.40;1.00;;;14.70;99.90;;;;;;5033705;28;20182;-69
2022/07/01 02:55:40;;;;;;;5.47;1.02;;;14.70;99.90;;;;;;5032910;28;20665;-69
2022/07/01 02:58:07;;;;;;;0.75;0.75;;;14.70;99.90;;;;;;5032623;28;20184;-69
2022/07/01 03:00:32;;;;;;;0.70;0.70;;;14.70;99.90;;;;;;5031052;28;20591;-69
2022/07/01 03:02:58;;;;;;;0.82;0.80;;;14.60;99.90;;;;;;5032965;28;20253;-70
2022/07/01 03:05:24;;;;;;;0.90;0.75;;;14.60;99.90;;;;;;5032886;28;20189;-69
2022/07/01 03:07:49;;;;;;;0.80;0.70;;;14.60;99.90;;;;;;5031911;28;20189;-69
2022/07/01 03:10:16;;;;;;;2.30;0.77;;;14.60;99.90;;;;;;5032881;28;20193;-69
2022/07/01 03:12:41;;;;;;;1.23;0.75;;;14.50;99.90;;;;;;5033083;28;20533;-69
2022/07/01 03:15:12;;;;;;;0.85;0.70;;;14.50;99.90;;;;;;5032623;28;20257;-69
2022/07/01 03:17:47;;;;;;;1.40;0.80;;;14.50;99.90;;;;;;5033131;28;20174;-70
2022/07/01 03:20:15;;;;;;;3.60;0.82;;;14.50;99.90;;;;;;5017001;28;20196;-70
2022/07/01 03:22:43;;;;;;;0.82;0.82;;;14.50;99.90;;;;;;5033038;28;20253;-70
2022/07/01 03:25:09;;;;;;;1.10;1.00;;;14.50;99.90;;;;;;5014489;28;21711;-70
2022/07/01 03:27:35;;;;;;;1.67;0.90;;;14.50;99.90;;;;;;5032779;28;20204;-69
2022/07/01 03:30:02;;;;;;;1.52;1.20;;;14.50;99.90;;;;;;5032687;28;20193;-69
2022/07/01 03:32:28;;;;;;;2.88;2.10;;;14.50;99.90;;;;;;5014853;28;20269;-69
2022/07/01 03:34:53;;;;;;;1.75;1.60;;;14.40;99.90;;;;;;5032407;28;20261;-70
2022/07/01 03:37:20;;;;;;;2.08;1.38;;;14.50;99.90;;;;;;5032689;28;20214;-70
2022/07/01 03:39:46;;;;;;;2.38;1.67;;;14.40;99.90;;;;;;5032701;28;20256;-69
2022/07/01 03:42:12;;;;;;;4.25;1.85;;;14.40;99.90;;;;;;5032773;28;20609;-70
2022/07/01 03:44:38;;;;;;;1.33;1.23;;;14.40;99.90;;;;;;5014392;28;20581;-69
2022/07/01 03:47:08;;;;;;;1.30;1.20;;;14.40;99.90;;;;;;5032353;28;20174;-70
2022/07/01 03:49:34;;;;;;;1.38;1.27;;;14.40;99.90;;;;;;5031401;28;20178;-70
2022/07/01 03:52:01;;;;;;;3.15;1.60;;;14.30;99.90;;;;;;5014292;28;20633;-69
2022/07/01 03:54:29;;;;;;;3.45;1.50;;;14.30;99.90;;;;;;5032253;28;20182;-69
2022/07/01 03:56:59;;;;;;;2.60;1.60;;;14.30;99.90;;;;;;5032072;28;20185;-69
2022/07/01 03:59:26;;;;;;;1.60;1.45;;;14.30;99.90;;;;;;5032041;28;20174;-69
2022/07/01 04:01:53;;;;;;;2.40;1.50;;;14.30;99.90;;;;;;5032120;28;20225;-69
2022/07/01 04:04:18;;;;;;;4.45;1.48;;;14.30;99.90;;;;;;5032177;28;20217;-69
2022/07/01 04:06:46;;;;;;;2.72;1.20;;;14.20;99.90;;;;;;5031915;28;20189;-69
2022/07/01 04:09:13;;;;;;;1.67;1.50;;;14.30;99.90;;;;;;5031868;28;20192;-69
2022/07/01 04:11:40;;;;;;;1.88;1.50;;;14.20;99.90;;;;;;5031478;28;20179;-69
2022/07/01 04:14:05;;;;;;;1.20;1.10;;;14.30;99.90;;;;;;5014219;28;20186;-70
2022/07/01 04:16:31;;;;;;;2.50;1.48;;;14.30;99.90;;;;;;5013813;28;20649;-69
2022/07/01 04:18:57;;;;;;;3.58;1.40;;;14.30;99.90;;;;;;5031882;28;20194;-69
2022/07/01 04:24:08;;;;;;;1.35;1.23;;;14.30;99.90;;;;;;5025082;28;20556;-69
2022/07/01 04:26:34;;;;;;;2.90;1.35;;;14.30;99.90;;;;;;5031750;28;20528;-69
2022/07/01 04:28:59;;;;;;;5.10;1.50;;;14.30;99.90;;;;;;5031723;28;20177;-69
2022/07/01 04:31:25;;;;;;;2.75;1.65;;;14.30;99.90;;;;;;5027372;28;20662;-70
2022/07/01 04:33:50;;;;;;;2.40;1.80;;;14.40;99.90;;;;;;5022010;28;20179;-69
2022/07/01 04:36:16;;;;;;;1.27;1.27;;;14.40;99.90;;;;;;5031826;28;20182;-69
2022/07/01 04:38:42;;;;;;;1.52;1.42;;;14.30;99.90;;;;;;5031640;28;20218;-70
2022/07/01 04:43:52;;;;;;;2.40;1.80;;;14.40;99.90;;;;;;5031896;28;20280;-69
2022/07/01 04:46:17;;;;;;;1.85;1.42;;;14.50;99.90;;;;;;5031334;28;20630;-69
2022/07/01 04:48:43;;;;;;;4.53;3.15;;;14.50;99.90;;;;;;5032007;28;20173;-69
2022/07/01 04:51:08;;;;;;;2.38;1.90;;;14.60;99.90;;;;;;5031561;28;20652;-68
2022/07/01 04:53:34;;;;;;;1.75;1.65;;;14.60;99.90;;;;;;5031553;28;20609;-69
2022/07/01 04:56:00;;;;;;;1.98;1.75;;;14.70;99.90;;;;;;5013408;28;20601;-69
2022/07/01 04:58:25;;;;;;;2.13;1.92;;;14.70;99.90;;;;;;5032523;28;20236;-69
2022/07/01 05:00:52;;;;;;;3.10;2.00;;;14.70;99.90;;;;;;5031266;28;20232;-69
2022/07/01 05:03:17;;;;;;;4.22;2.08;;;14.70;99.90;;;;;;5031575;28;20178;-69
2022/07/01 05:05:43;;;;;;;2.63;2.25;;;14.80;99.90;;;;;;5031384;28;20190;-69
2022/07/01 05:08:08;;;;;;;1.80;1.70;;;14.80;99.90;;;;;;5030895;28;20177;-70
2022/07/01 05:10:34;;;;;;;3.35;1.88;;;14.80;99.90;;;;;;5031389;28;20217;-69
2022/07/01 05:13:00;;;;;;;2.22;1.92;;;14.90;99.90;;;;;;5031047;28;20277;-69
2022/07/01 05:15:25;;;;;;;2.88;1.92;;;14.90;99.90;;;;;;5031442;28;20186;-69
2022/07/01 05:23:19;;;;;;;2.90;1.90;;;15.00;99.90;;;;;;5018375;28;20220;-70
2022/07/01 05:25:44;;;;;;;2.10;1.90;;;15.10;99.90;;;;;;5035305;28;20178;-71
2022/07/01 05:28:10;;;;;;;4.05;2.22;;;15.10;99.90;;;;;;5035497;28;20548;-71
2022/07/01 05:30:35;;;;;;;1.92;1.67;;;15.10;99.90;;;;;;5035416;28;20185;-71
2022/07/01 05:33:01;;;;;;;1.70;1.60;;;15.00;99.90;;;;;;5035044;28;20178;-71
2022/07/01 05:35:27;;;;;;;3.97;1.90;;;15.00;99.90;;;;;;5038780;28;20283;-71
2022/07/01 05:37:52;;;;;;;2.42;1.73;;;15.00;99.90;;;;;;5033780;28;20276;-71
2022/07/01 05:40:18;;;;;;;4.22;2.08;;;14.90;99.90;;;;;;5034199;28;20268;-70
2022/07/01 05:42:43;;;;;;;1.70;1.60;;;14.90;99.90;;;;;;5035204;28;20285;-71
2022/07/01 05:45:09;;;;;;;1.70;1.60;;;14.90;99.90;;;;;;5030660;28;20673;-71
2022/07/01 05:47:34;;;;;;;2.80;1.60;;;14.90;99.90;;;;;;5017229;28;20174;-70
2022/07/01 05:50:00;;;;;;;1.60;1.50;;;15.00;99.90;;;;;;5031748;28;20233;-70
2022/07/01 05:52:26;;;;;;;4.28;1.58;;;15.00;99.90;;;;;;5026840;28;20634;-70
2022/07/01 05:54:51;;;;;;;2.28;1.48;;;15.10;99.90;;;;;;5018321;28;20174;-71
2022/07/01 05:57:16;;;;;;;1.50;1.40;;;15.10;99.90;;;;;;5034818;28;20853;-70
2022/07/01 05:59:42;;;;;;;3.47;1.10;;;15.10;99.90;;;;;;5027571;28;20174;-69
2022/07/01 06:02:07;;;;;;;2.60;1.55;;;15.10;99.90;;;;;;5035101;28;20182;-71
2022/07/01 06:04:33;;;;;;;1.60;1.20;;;15.20;99.90;;;;;;5017169;28;20224;-71
2022/07/01 06:06:59;;;;;;;1.75;1.58;;;15.20;99.90;;;;;;5034623;28;20208;-71
2022/07/01 06:09:25;;;;;;;2.63;1.33;;;15.20;99.90;;;;;;5034050;28;20197;-71
2022/07/01 06:11:50;;;;;;;2.55;1.35;;;15.20;99.90;;;;;;5034560;28;20252;-71
2022/07/01 06:14:16;;;;;;;2.90;1.45;;;15.10;99.90;;;;;;5032904;28;20174;-71
2022/07/01 06:16:41;;;;;;;1.98;1.60;;;15.10;99.90;;;;;;5033147;28;20182;-71
2022/07/01 06:19:07;;;;;;;1.85;1.38;;;15.10;99.90;;;;;;5034203;28;20178;-70
2022/07/01 06:21:33;;;;;;;2.55;1.63;;;15.00;99.90;;;;;;5034660;28;20182;-71
2022/07/01 06:23:58;;;;;;;1.90;1.35;;;15.10;99.90;;;;;;5033961;28;20322;-71
2022/07/01 06:26:24;;;;;;;2.78;1.73;;;15.10;99.90;;;;;;5034569;28;20202;-71
2022/07/01 06:28:50;;;;;;;2.83;1.50;;;15.00;99.90;;;;;;5034069;28;20280;-71
2022/07/01 06:31:16;;;;;;;2.15;1.80;;;14.80;99.90;;;;;;5033913;28;20179;-70
2022/07/01 06:33:42;;;;;;;2.40;1.80;;;14.80;99.90;;;;;;5034021;28;20289;-71
2022/07/01 06:36:07;;;;;;;2.03;1.50;;;14.70;99.90;;;;;;5033852;28;20192;-70
2022/07/01 06:38:33;;;;;;;2.53;1.50;;;14.70;99.90;;;;;;5033967;28;20301;-69
2022/07/01 06:43:43;;;;;;;2.10;1.70;;;14.70;99.90;;;;;;5032252;28;20233;-69
2022/07/01 06:46:09;;;;;;;2.20;1.63;;;14.70;99.90;;;;;;5029979;28;20190;-70
2022/07/01 06:48:35;;;;;;;1.80;1.67;;;14.80;99.90;;;;;;5033521;28;20573;-69
2022/07/01 06:51:01;;;;;;;2.72;1.60;;;14.80;99.90;;;;;;5034070;28;20189;-70
2022/07/01 06:53:27;;;;;;;1.77;1.67;;;14.80;99.90;;;;;;5033211;28;20182;-69
2022/07/01 06:55:52;;;;;;;1.90;1.80;;;14.80;99.90;;;;;;5033712;28;20273;-70
2022/07/01 06:58:18;;;;;;;1.60;1.50;;;14.80;99.90;;;;;;5013643;28;20178;-70
2022/07/01 07:00:43;;;;;;;2.38;1.55;;;14.90;99.90;;;;;;5033607;28;20197;-70
2022/07/01 07:03:09;;;;;;;1.65;1.55;;;14.80;99.90;;;;;;5033590;28;20181;-70
2022/07/01 07:05:34;;;;;;;1.90;1.75;;;14.80;99.90;;;;;;5033598;28;20182;-70
2022/07/01 07:08:00;;;;;;;2.75;2.00;;;14.80;99.90;;;;;;5033589;28;20667;-70
2022/07/01 07:10:26;;;;;;;2.42;1.58;;;14.90;99.90;;;;;;5030465;28;20552;-71
2022/07/01 07:12:51;;;;;;;4.40;1.90;;;15.00;99.90;;;;;;5032670;28;20174;-70
2022/07/01 07:15:18;;;;;;;2.05;1.95;;;15.10;99.90;;;;;;5031961;28;20323;-70
2022/07/01 07:17:43;;;;;;;2.10;1.88;;;15.10;99.90;;;;;;5032972;28;20197;-69
2022/07/01 07:20:09;;;;;;;2.58;2.22;;;15.20;99.90;;;;;;5015056;28;20186;-68
2022/07/01 07:22:35;;;;;;;4.82;2.15;;;15.20;99.90;;;;;;5033134;28;20182;-69
2022/07/01 07:25:00;;;;;;;2.30;2.10;;;15.10;99.90;;;;;;5028146;28;20360;-68
2022/07/01 07:27:26;;;;;;;2.17;1.90;;;15.10;99.90;;;;;;5033266;28;20580;-69
2022/07/01 07:29:51;;;;;;;2.42;1.98;;;15.20;99.90;;;;;;5033402;28;20656;-69
2022/07/01 07:32:17;;;;;;;2.20;2.00;;;15.20;99.90;;;;;;5033150;28;20179;-69
2022/07/01 07:34:43;;;;;;;2.40;2.20;;;15.30;99.90;;;;;;5033529;28;20699;-69
2022/07/01 07:37:08;;;;;;;3.40;2.10;;;15.40;99.90;;;;;;5033244;28;20660;-69
2022/07/01 07:39:34;;;;;;;2.72;2.00;;;15.30;99.90;;;;;;5032824;28;20344;-68
2022/07/01 07:42:00;;;;;;;4.80;2.22;;;15.40;99.90;;;;;;5014027;28;20182;-69
2022/07/01 07:44:25;;;;;;;2.30;2.00;;;15.50;99.90;;;;;;5032142;28;20587;-69
2022/07/01 07:46:51;;;;;;;6.22;2.35;;;15.50;99.90;;;;;;5032910;28;20178;-69
2022/07/01 07:49:16;;;;;;;2.80;2.20;;;15.60;99.90;;;;;;5014438;28;20189;-69
2022/07/01 07:51:42;;;;;;;2.63;2.42;;;15.80;99.90;;;;;;5010592;28;20186;-69
2022/07/01 07:54:08;;;;;;;2.72;2.17;;;15.90;99.90;;;;;;5028609;28;20210;-70
2022/07/01 07:56:33;;;;;;;2.17;1.98;;;16.00;99.90;;;;;;5032628;28;20166;-68
2022/07/01 07:58:59;;;;;;;4.28;2.08;;;16.10;99.90;;;;;;5032226;28;20186;-69
2022/07/01 08:01:24;;;;;;;2.55;1.98;;;16.20;99.90;;;;;;5023277;28;20216;-71
2022/07/01 08:03:50;;;;;;;2.05;1.85;;;16.20;99.90;;;;;;5026951;28;20214;-71
2022/07/01 08:06:17;;;;;;;2.58;1.90;;;16.30;99.90;;;;;;5031023;28;20178;-71
2022/07/01 08:08:43;;;;;;;2.00;1.55;;;16.30;99.90;;;;;;5019570;28;20220;-71
2022/07/01 08:11:08;;;;;;;2.78;2.17;;;16.20;99.90;;;;;;5028369;28;20186;-70
2022/07/01 08:13:34;;;;;;;2.63;1.90;;;16.10;99.90;;;;;;5026925;28;20183;-70
2022/07/01 08:16:00;;;;;;;2.47;1.75;;;16.00;99.90;;;;;;5017372;28;20536;-69
2022/07/01 08:18:26;;;;;;;2.55;2.08;;;16.00;99.90;;;;;;5030881;28;20186;-70
2022/07/01 08:20:52;;;;;;;1.60;1.50;;;16.00;99.90;;;;;;5013894;28;20585;-69
2022/07/01 08:23:22;;;;;;;2.97;1.80;;;15.90;99.90;;;;;;5030115;28;20233;-71
2022/07/01 08:25:48;;;;;;;2.25;1.80;;;15.90;99.90;;;;;;5028642;28;20217;-71
2022/07/01 08:28:14;;;;;;;2.05;1.92;;;15.80;99.90;;;;;;5030825;28;20193;-71
2022/07/01 08:30:40;;;;;;;3.38;1.85;;;15.90;99.90;;;;;;5031294;28;20178;-71
2022/07/01 08:33:05;;;;;;;1.52;1.42;;;16.00;99.90;;;;;;5032024;28;20654;-71
2022/07/01 08:35:31;;;;;;;1.92;1.63;;;16.00;99.90;;;;;;5030538;28;20282;-71
2022/07/01 08:37:56;;;;;;;2.80;1.40;;;16.20;99.90;;;;;;5031114;28;20261;-71
2022/07/01 08:40:30;;;;;;;2.35;2.05;;;16.30;99.90;;;;;;5025457;28;20185;-71
2022/07/01 08:43:00;;;;;;;2.35;2.15;;;16.40;99.90;;;;;;5003178;28;20186;-71
2022/07/01 08:45:28;;;;;;;2.92;2.05;;;16.40;99.90;;;;;;5030606;28;20268;-71
2022/07/01 08:47:57;;;;;;;2.55;2.05;;;16.40;99.90;;;;;;5031790;28;20205;-71
2022/07/01 08:50:25;;;;;;;3.22;1.88;;;16.30;99.90;;;;;;5031166;28;20185;-71
2022/07/01 08:52:51;;;;;;;2.20;2.00;;;16.10;99.90;;;;;;5031304;28;20551;-71
2022/07/01 08:55:17;;;;;;;2.72;1.80;;;16.00;99.90;;;;;;5031151;28;20633;-71
2022/07/01 08:57:43;;;;;;;2.30;2.10;;;16.00;99.90;;;;;;5030816;28;20824;-71
2022/07/01 09:00:09;;;;;;;3.20;2.10;;;16.00;99.90;;;;;;5031081;28;20295;-71
2022/07/01 09:02:55;;;;;;;2.42;2.20;;;15.90;99.90;;;;;;5024896;28;20178;-71
2022/07/01 09:05:22;;;;;;;2.35;2.08;;;15.80;99.90;;;;;;5029970;28;20688;-71
2022/07/01 09:07:48;;;;;;;3.53;2.42;;;15.60;99.90;;;;;;5031343;28;20178;-70
2022/07/01 09:10:19;;;;;;;2.60;2.30;;;15.50;99.90;;;;;;5026709;28;20606;-71
2022/07/01 09:12:46;;;;;;;2.60;2.40;;;15.50;99.90;;;;;;5031883;28;20220;-71
2022/07/01 09:15:29;;;;;;;2.10;2.00;;;15.50;99.90;;;;;;5031294;28;20178;-70
2022/07/01 09:17:56;;;;;;;3.00;1.90;;;15.60;99.90;;;;;;5031145;28;20651;-71
2022/07/01 09:20:29;;;;;;;2.10;1.90;;;15.70;99.90;;;;;;5031203;28;20308;-71
2022/07/01 09:23:14;;;;;;;1.98;1.83;;;15.90;99.90;;;;;;5031872;28;20231;-70
2022/07/01 09:25:44;;;;;;;3.85;2.00;;;16.20;99.90;;;;;;5031077;28;20193;-70
2022/07/01 09:28:18;;;;;;;1.65;1.55;;;16.50;99.90;;;;;;5031128;28;20174;-70
2022/07/01 09:30:46;;;;;;;3.40;1.92;;;16.70;99.90;;;;;;5031500;28;20185;-70
2022/07/01 09:33:15;;;;;;;1.52;1.48;;;17.10;99.90;;;;;;5029245;28;20174;-70
2022/07/01 09:35:41;;;;;;;2.58;2.10;;;17.30;99.90;;;;;;5022251;28;20270;-71
2022/07/01 09:38:11;;;;;;;1.95;1.80;;;17.50;99.90;;;;;;5018980;28;20222;-71
2022/07/01 09:40:56;;;;;;;1.90;1.60;;;17.50;99.90;;;;;;5012752;28;20532;-71
2022/07/01 09:43:25;;;;;;;2.80;1.98;;;17.40;99.90;;;;;;5011731;28;20623;-71
2022/07/01 09:46:09;;;;;;;1.83;1.60;;;17.40;99.90;;;;;;5030581;28;20202;-71
2022/07/01 09:48:35;;;;;;;2.05;1.80;;;17.40;99.90;;;;;;5030750;28;20189;-71
2022/07/01 09:51:02;;;;;;;2.33;1.55;;;17.40;99.90;;;;;;5030379;28;20182;-71
2022/07/01 09:53:28;;;;;;;2.33;1.58;;;17.50;99.90;;;;;;5013399;28;20599;-71
2022/07/01 09:55:53;;;;;;;1.60;1.50;;;17.40;99.90;;;;;;5030853;28;20287;-70
2022/07/01 09:58:20;;;;;;;1.98;1.83;;;17.40;99.90;;;;;;5031206;28;20237;-71
2022/07/01 10:00:45;;;;;;;2.85;1.77;;;17.60;99.90;;;;;;5029251;28;20244;-71
2022/07/01 10:03:12;;;;;;;1.50;1.40;;;17.60;99.90;;;;;;5031265;28;20194;-72
2022/07/01 10:06:03;;;;;;;1.80;1.70;;;17.60;99.90;;;;;;5030941;28;20263;-72
2022/07/01 10:08:55;;;;;;;1.63;1.50;;;17.70;99.90;;;;;;5032738;28;20676;-72
2022/07/01 10:11:34;;;;;;;1.80;1.70;;;17.70;99.90;;;;;;5034220;28;20178;-72
2022/07/01 10:14:06;;;;;;;1.60;1.50;;;17.80;99.90;;;;;;5034337;28;20649;-71
2022/07/01 10:16:33;;;;;;;1.88;1.65;;;17.90;99.90;;;;;;5033788;28;20185;-72
2022/07/01 10:19:05;;;;;;;2.92;1.80;;;18.00;99.90;;;;;;5032972;28;20564;-71
2022/07/01 10:21:31;;;;;;;2.50;1.50;;;18.10;99.90;;;;;;5032815;28;20224;-71
2022/07/01 10:24:14;;;;;;;2.28;1.60;;;18.40;99.90;;;;;;5034248;28;20217;-71
2022/07/01 10:26:40;;;;;;;1.50;1.30;;;18.80;99.90;;;;;;5008147;28;20236;-71
2022/07/01 10:29:27;;;;;;;1.48;1.35;;;19.30;99.90;;;;;;5032430;28;20190;-70
2022/07/01 10:31:53;;;;;;;1.60;1.40;;;19.80;99.90;;;;;;5034100;28;20261;-70
2022/07/01 10:34:22;;;;;;;1.63;1.52;;;20.40;99.90;;;;;;5033210;28;20182;-70
2022/07/01 10:37:01;;;;;;;2.25;1.40;;;21.00;99.90;;;;;;5033840;28;20577;-68
2022/07/01 10:39:27;;;;;;;1.10;1.10;;;21.30;99.90;;;;;;5033888;28;20329;-72
2022/07/01 10:41:53;;;;;;;1.40;1.30;;;21.50;99.90;;;;;;5032271;28;20257;-69
2022/07/01 10:44:19;;;;;;;1.13;1.10;;;21.60;99.90;;;;;;5016410;28;20220;-69
2022/07/01 10:46:59;;;;;;;1.42;1.23;;;21.40;99.90;;;;;;5033609;28;20182;-67
2022/07/01 10:49:52;;;;;;;2.63;1.17;;;21.10;99.90;;;;;;5028156;28;20664;-65
2022/07/01 10:52:18;;;;;;;3.20;1.17;;;21.00;99.90;;;;;;5031077;28;20623;-65
2022/07/01 10:54:45;;;;;;;2.28;0.90;;;20.80;99.90;;;;;;5016280;28;20205;-65
2022/07/01 10:57:19;;;;;;;1.05;1.05;;;20.80;99.90;;;;;;5033584;28;20235;-65
2022/07/01 11:00:06;;;;;;;3.42;1.13;;;21.00;99.90;;;;;;5035623;28;20213;-65
2022/07/01 11:02:38;;;;;;;1.23;1.17;;;21.00;99.90;;;;;;5031106;28;20540;-65
2022/07/01 11:05:10;;;;;;;1.40;1.30;;;20.80;99.90;;;;;;5033706;28;20210;-65
2022/07/01 11:07:39;;;;;;;2.75;1.30;;;20.50;99.90;;;;;;5033545;28;20193;-65
2022/07/01 11:10:07;;;;;;;1.63;1.05;;;20.10;99.90;;;;;;5015458;28;20182;-66
2022/07/01 11:12:33;;;;;;;2.20;1.20;;;19.90;99.90;;;;;;5032591;28;20179;-65
2022/07/01 11:15:01;;;;;;;1.25;1.00;;;19.90;99.90;;;;;;5033570;28;20185;-65
2022/07/01 11:17:27;;;;;;;1.30;1.20;;;20.00;99.90;;;;;;5031462;28;20166;-66
2022/07/01 11:19:57;;;;;;;1.25;1.15;;;20.00;99.90;;;;;;5021875;28;20590;-66
2022/07/01 11:22:25;;;;;;;1.30;1.20;;;19.80;99.90;;;;;;5030956;28;20174;-66
2022/07/01 11:24:52;;;;;;;2.78;1.17;;;19.80;99.90;;;;;;5015233;28;20355;-66
2022/07/01 11:27:18;;;;;;;1.20;1.10;;;20.20;99.90;;;;;;5033183;28;20185;-66
2022/07/01 11:29:43;;;;;;;1.08;1.00;;;20.80;99.90;;;;;;5033032;28;20652;-66
2022/07/01 11:32:09;;;;;;;1.88;1.10;;;21.60;99.90;;;;;;5033154;28;20190;-65
2022/07/01 11:34:36;;;;;;;0.70;0.70;;;22.00;99.90;;;;;;5032108;28;20174;-66
2022/07/01 11:40:24;;;;;;;1.77;0.90;;;22.60;97.60;;;;;;5032081;28;20241;-66
2022/07/01 11:42:49;;;;;;;1.15;0.85;;;22.90;97.50;;;;;;5019524;28;20676;-65
2022/07/01 11:45:26;;;;;;;1.33;0.93;;;23.00;96.90;;;;;;5032974;28;20209;-66
2022/07/01 11:47:53;;;;;;;1.65;0.85;;;23.30;96.80;;;;;;5031971;28;20598;-65
2022/07/01 11:50:19;;;;;;;1.95;1.10;;;23.60;96.80;;;;;;5032854;28;20214;-66
2022/07/01 11:52:45;;;;;;;3.53;0.90;;;24.00;96.40;;;;;;5031855;28;20185;-65
2022/07/01 11:55:11;;;;;;;0.80;0.80;;;24.30;93.20;;;;;;5027451;28;20178;-66
2022/07/01 11:57:37;;;;;;;1.73;0.68;;;24.30;92.60;;;;;;5034916;28;20186;-66
2022/07/01 12:00:12;;;;;;;2.28;0.90;;;24.10;91.40;;;;;;5041736;28;20178;-66
2022/07/01 12:02:38;;;;;;;1.55;0.93;;;24.00;92.40;;;;;;5032050;28;20197;-66
2022/07/01 12:05:05;;;;;;;0.90;0.90;;;24.10;93.40;;;;;;5051176;28;20213;-66
2022/07/01 12:07:31;;;;;;;1.48;0.95;;;24.10;92.40;;;;;;5042114;28;20192;-66
2022/07/01 12:09:57;;;;;;;1.35;1.02;;;24.20;92.40;;;;;;5032038;28;20186;-66
2022/07/01 12:12:25;;;;;;;2.35;0.93;;;24.40;90.70;;;;;;5033595;28;20170;-66
2022/07/01 12:14:58;;;;;;;1.08;0.98;;;24.40;90.30;;;;;;5036360;28;20198;-66
2022/07/01 12:17:26;;;;;;;1.38;1.10;;;24.70;92.00;;;;;;5032058;28;20182;-66
2022/07/01 12:19:53;;;;;;;2.03;1.33;;;24.90;89.70;;;;;;5031471;28;20190;-66
2022/07/01 12:22:26;;;;;;;1.13;1.00;;;24.80;88.40;;;;;;5027849;28;20224;-66
2022/07/01 12:25:05;;;;;;;2.53;1.63;;;25.10;88.30;;;;;;5013883;28;20271;-66
2022/07/01 12:27:35;;;;;;;3.75;1.30;;;25.20;87.70;;;;;;5030865;28;20557;-66
2022/07/01 12:30:00;;;;;;;2.25;1.05;;;25.20;84.90;;;;;;5031152;28;20311;-66
2022/07/01 12:32:28;;;;;;;1.10;1.00;;;24.90;85.70;;;;;;5031793;28;20715;-66
2022/07/01 12:35:01;;;;;;;1.67;1.10;;;24.90;85.90;;;;;;5031316;28;20220;-66
2022/07/01 12:37:28;;;;;;;0.95;0.70;;;24.80;81.90;;;;;;5031786;28;20672;-66
2022/07/01 12:39:57;;;;;;;1.33;0.70;;;24.60;83.00;;;;;;5031917;28;20225;-66
2022/07/01 12:42:37;;;;;;;1.52;1.30;;;24.70;82.90;;;;;;5031358;28;20182;-66
2022/07/01 12:45:05;;;;;;;1.17;0.90;;;24.90;84.50;;;;;;5031145;28;20210;-66
2022/07/01 12:47:45;;;;;;;1.38;0.90;;;25.00;84.60;;;;;;5031403;28;20178;-66
2022/07/01 12:50:31;;;;;;;1.98;0.90;;;24.80;81.60;;;;;;5031513;28;20212;-66
2022/07/01 12:53:02;;;;;;;1.00;0.90;;;24.60;81.60;;;;;;5027840;28;20596;-66
2022/07/01 12:55:35;;;;;;;1.75;0.70;;;24.40;80.80;;;;;;5031477;28;20261;-66
2022/07/01 12:58:04;;;;;;;1.10;1.00;;;24.30;80.90;;;;;;5031519;28;20260;-66
2022/07/01 13:00:31;;;;;;;1.05;0.70;;;24.30;82.50;;;;;;5029341;28;20178;-66
2022/07/01 13:03:00;;;;;;;0.75;0.70;;;24.50;83.00;;;;;;5030793;28;20214;-66
2022/07/01 13:05:25;;;;;;;1.55;0.70;;;24.70;82.40;;;;;;5031196;28;20790;-67